sensor_id;sensor_type;location;lat;lon;timestamp;P1;durP1;ratioP1;P2;durP2;ratioP2
28158;SDS011;15447;50.828;4.406;2023-11-21T06:31:01;64.15;;;29.67;;
28158;SDS011;15447;50.828;4.406;2023-11-21T06:33:31;64.32;;;29.20;;
28158;SDS011;15447;50.828;4.406;2023-11-21T06:35:57;60.53;;;31.25;;
28158;SDS011;15447;50.828;4.406;2023-11-21T06:38:23;67.53;;;30.45;;
28158;SDS011;15447;50.828;4.406;2023-11-21T06:40:48;63.33;;;29.27;;
28158;SDS011;15447;50.828;4.406;2023-11-21T06:43:14;62.28;;;30.70;;
28158;SDS011;15447;50.828;4.406;2023-11-21T06:45:40;57.95;;;29.77;;
28158;SDS011;15447;50.828;4.406;2023-11-21T06:48:06;65.47;;;30.65;;
28158;SDS011;15447;50.828;4.406;2023-11-21T06:50:31;65.68;;;31.20;;
28158;SDS011;15447;50.828;4.406;2023-11-21T06:52:57;57.75;;;30.77;;
28158;SDS011;15447;50.828;4.406;2023-11-21T06:55:23;62.53;;;30.88;;
28158;SDS011;15447;50.828;4.406;2023-11-21T06:57:48;65.43;;;30.40;;
28158;SDS011;15447;50.828;4.406;2023-11-21T07:00:15;69.55;;;33.55;;
28158;SDS011;15447;50.828;4.406;2023-11-21T07:02:42;63.97;;;30.42;;
28158;SDS011;15447;50.828;4.406;2023-11-21T07:05:08;59.05;;;29.73;;
28158;SDS011;15447;50.828;4.406;2023-11-21T07:07:34;62.22;;;31.23;;
28158;SDS011;15447;50.828;4.406;2023-11-21T07:10:00;68.60;;;29.10;;
28158;SDS011;15447;50.828;4.406;2023-11-21T07:12:28;64.13;;;30.08;;
28158;SDS011;15447;50.828;4.406;2023-11-21T07:14:56;62.03;;;29.17;;
28158;SDS011;15447;50.828;4.406;2023-11-21T07:17:22;64.75;;;30.55;;
28158;SDS011;15447;50.828;4.406;2023-11-21T07:19:48;54.53;;;28.27;;
28158;SDS011;15447;50.828;4.406;2023-11-21T07:22:15;61.03;;;29.65;;
28158;SDS011;15447;50.828;4.406;2023-11-21T07:24:47;56.35;;;28.85;;
28158;SDS011;15447;50.828;4.406;2023-11-21T07:27:14;56.10;;;28.05;;
28158;SDS011;15447;50.828;4.406;2023-11-21T07:29:40;42.95;;;25.65;;
28158;SDS011;15447;50.828;4.406;2023-11-21T07:32:06;55.58;;;28.23;;
28158;SDS011;15447;50.828;4.406;2023-11-21T07:34:34;62.67;;;30.55;;
28158;SDS011;15447;50.828;4.406;2023-11-21T07:36:59;52.75;;;26.65;;
28158;SDS011;15447;50.828;4.406;2023-11-21T07:39:25;54.15;;;27.35;;
28158;SDS011;15447;50.828;4.406;2023-11-21T07:41:51;52.10;;;27.35;;
28158;SDS011;15447;50.828;4.406;2023-11-21T07:44:16;53.50;;;28.15;;
28158;SDS011;15447;50.828;4.406;2023-11-21T07:46:42;53.83;;;28.15;;
28158;SDS011;15447;50.828;4.406;2023-11-21T07:49:08;55.03;;;27.67;;
28158;SDS011;15447;50.828;4.406;2023-11-21T07:51:34;55.10;;;27.55;;
28158;SDS011;15447;50.828;4.406;2023-11-21T07:53:59;62.50;;;28.90;;
28158;SDS011;15447;50.828;4.406;2023-11-21T07:56:25;64.68;;;30.25;;
28158;SDS011;15447;50.828;4.406;2023-11-21T07:58:51;62.63;;;29.92;;
28158;SDS011;15447;50.828;4.406;2023-11-21T08:01:17;68.22;;;30.85;;
28158;SDS011;15447;50.828;4.406;2023-11-21T08:03:42;60.50;;;29.77;;
28158;SDS011;15447;50.828;4.406;2023-11-21T08:06:09;67.82;;;30.23;;
28158;SDS011;15447;50.828;4.406;2023-11-21T08:08:34;64.03;;;31.05;;
28158;SDS011;15447;50.828;4.406;2023-11-21T08:11:01;63.10;;;29.95;;
28158;SDS011;15447;50.828;4.406;2023-11-21T08:13:27;66.13;;;29.35;;
28158;SDS011;15447;50.828;4.406;2023-11-21T08:15:55;66.65;;;30.70;;
28158;SDS011;15447;50.828;4.406;2023-11-21T08:18:26;72.53;;;31.75;;
28158;SDS011;15447;50.828;4.406;2023-11-21T08:20:52;71.53;;;30.45;;
28158;SDS011;15447;50.828;4.406;2023-11-21T08:23:20;66.03;;;30.20;;
28158;SDS011;15447;50.828;4.406;2023-11-21T08:25:46;73.15;;;30.45;;
28158;SDS011;15447;50.828;4.406;2023-11-21T08:28:12;74.97;;;31.35;;
28158;SDS011;15447;50.828;4.406;2023-11-21T08:30:41;66.72;;;29.42;;
28158;SDS011;15447;50.828;4.406;2023-11-21T08:33:07;64.45;;;30.50;;
28158;SDS011;15447;50.828;4.406;2023-11-21T08:35:33;72.07;;;30.05;;
28158;SDS011;15447;50.828;4.406;2023-11-21T08:37:59;65.95;;;31.73;;
28158;SDS011;15447;50.828;4.406;2023-11-21T08:40:25;70.53;;;30.73;;
28158;SDS011;15447;50.828;4.406;2023-11-21T08:42:51;71.22;;;31.70;;
28158;SDS011;15447;50.828;4.406;2023-11-21T08:45:17;74.80;;;31.63;;
28158;SDS011;15447;50.828;4.406;2023-11-21T08:47:44;73.53;;;31.40;;
28158;SDS011;15447;50.828;4.406;2023-11-21T08:50:10;74.97;;;33.08;;
28158;SDS011;15447;50.828;4.406;2023-11-21T08:52:37;71.47;;;32.17;;
28158;SDS011;15447;50.828;4.406;2023-11-21T08:55:04;75.13;;;32.78;;
28158;SDS011;15447;50.828;4.406;2023-11-21T08:57:35;74.78;;;31.95;;
28158;SDS011;15447;50.828;4.406;2023-11-21T09:00:02;79.50;;;33.05;;
28158;SDS011;15447;50.828;4.406;2023-11-21T09:02:32;76.10;;;33.63;;
28158;SDS011;15447;50.828;4.406;2023-11-21T09:04:59;81.40;;;31.58;;
28158;SDS011;15447;50.828;4.406;2023-11-21T09:07:28;83.53;;;33.83;;
28158;SDS011;15447;50.828;4.406;2023-11-21T09:09:54;79.20;;;34.08;;
28158;SDS011;15447;50.828;4.406;2023-11-21T09:12:20;94.63;;;33.33;;
28158;SDS011;15447;50.828;4.406;2023-11-21T09:14:46;80.85;;;33.50;;
28158;SDS011;15447;50.828;4.406;2023-11-21T09:17:12;94.30;;;38.53;;
28158;SDS011;15447;50.828;4.406;2023-11-21T09:19:38;85.85;;;35.65;;
28158;SDS011;15447;50.828;4.406;2023-11-21T09:22:03;78.25;;;32.47;;
28158;SDS011;15447;50.828;4.406;2023-11-21T09:24:32;80.75;;;31.55;;
28158;SDS011;15447;50.828;4.406;2023-11-21T09:26:59;92.22;;;33.65;;
28158;SDS011;15447;50.828;4.406;2023-11-21T09:29:28;87.68;;;33.55;;
28158;SDS011;15447;50.828;4.406;2023-11-21T09:31:54;88.57;;;32.72;;
28158;SDS011;15447;50.828;4.406;2023-11-21T09:34:21;94.30;;;36.05;;
28158;SDS011;15447;50.828;4.406;2023-11-21T09:36:47;82.43;;;34.10;;
28158;SDS011;15447;50.828;4.406;2023-11-21T09:39:13;83.80;;;32.80;;
28158;SDS011;15447;50.828;4.406;2023-11-21T09:41:43;90.78;;;32.83;;
28158;SDS011;15447;50.828;4.406;2023-11-21T09:44:17;81.10;;;31.50;;
28158;SDS011;15447;50.828;4.406;2023-11-21T09:46:45;83.05;;;31.45;;
28158;SDS011;15447;50.828;4.406;2023-11-21T09:49:14;82.80;;;31.50;;
28158;SDS011;15447;50.828;4.406;2023-11-21T09:51:43;72.35;;;29.63;;
28158;SDS011;15447;50.828;4.406;2023-11-21T09:54:11;69.40;;;29.52;;
28158;SDS011;15447;50.828;4.406;2023-11-21T09:56:41;63.00;;;29.00;;
28158;SDS011;15447;50.828;4.406;2023-11-21T09:59:07;74.63;;;32.25;;
28158;SDS011;15447;50.828;4.406;2023-11-21T10:01:40;68.97;;;29.33;;
28158;SDS011;15447;50.828;4.406;2023-11-21T10:04:07;76.78;;;31.15;;
28158;SDS011;15447;50.828;4.406;2023-11-21T10:06:39;81.05;;;32.15;;
28158;SDS011;15447;50.828;4.406;2023-11-21T10:09:07;74.03;;;31.65;;
28158;SDS011;15447;50.828;4.406;2023-11-21T10:11:39;74.50;;;30.88;;
28158;SDS011;15447;50.828;4.406;2023-11-21T10:14:12;62.97;;;28.42;;
28158;SDS011;15447;50.828;4.406;2023-11-21T10:16:39;50.40;;;25.00;;
28158;SDS011;15447;50.828;4.406;2023-11-21T10:19:09;64.88;;;28.65;;
28158;SDS011;15447;50.828;4.406;2023-11-21T10:21:37;48.58;;;24.58;;
28158;SDS011;15447;50.828;4.406;2023-11-21T10:24:04;42.35;;;21.90;;
28158;SDS011;15447;50.828;4.406;2023-11-21T10:29:06;48.03;;;24.38;;
28158;SDS011;15447;50.828;4.406;2023-11-21T10:31:32;36.58;;;20.67;;
28158;SDS011;15447;50.828;4.406;2023-11-21T10:34:14;36.28;;;20.33;;
28158;SDS011;15447;50.828;4.406;2023-11-21T10:36:40;33.88;;;18.58;;
28158;SDS011;15447;50.828;4.406;2023-11-21T10:39:06;34.40;;;19.13;;
28158;SDS011;15447;50.828;4.406;2023-11-21T10:41:32;34.35;;;18.30;;
28158;SDS011;15447;50.828;4.406;2023-11-21T10:43:58;28.45;;;16.10;;
28158;SDS011;15447;50.828;4.406;2023-11-21T10:46:23;29.67;;;16.67;;
28158;SDS011;15447;50.828;4.406;2023-11-21T10:48:54;29.75;;;16.77;;
28158;SDS011;15447;50.828;4.406;2023-11-21T10:51:21;32.03;;;17.13;;
28158;SDS011;15447;50.828;4.406;2023-11-21T10:53:46;26.25;;;16.38;;
28158;SDS011;15447;50.828;4.406;2023-11-21T10:56:15;31.50;;;17.13;;
28158;SDS011;15447;50.828;4.406;2023-11-21T10:58:44;31.50;;;16.40;;
28158;SDS011;15447;50.828;4.406;2023-11-21T11:01:10;29.15;;;16.90;;
28158;SDS011;15447;50.828;4.406;2023-11-21T11:03:39;28.70;;;17.15;;
28158;SDS011;15447;50.828;4.406;2023-11-21T11:06:06;32.60;;;18.15;;
28158;SDS011;15447;50.828;4.406;2023-11-21T11:08:36;31.80;;;18.15;;
28158;SDS011;15447;50.828;4.406;2023-11-21T11:11:03;31.25;;;19.30;;
28158;SDS011;15447;50.828;4.406;2023-11-21T11:13:34;35.95;;;19.58;;
28158;SDS011;15447;50.828;4.406;2023-11-21T11:16:01;32.80;;;18.83;;
28158;SDS011;15447;50.828;4.406;2023-11-21T11:18:30;30.77;;;18.27;;
28158;SDS011;15447;50.828;4.406;2023-11-21T11:24:09;38.00;;;20.25;;
28158;SDS011;15447;50.828;4.406;2023-11-21T11:26:53;38.88;;;20.65;;
28158;SDS011;15447;50.828;4.406;2023-11-21T11:29:27;40.65;;;22.38;;
28158;SDS011;15447;50.828;4.406;2023-11-21T11:32:16;41.92;;;21.40;;
28158;SDS011;15447;50.828;4.406;2023-11-21T11:35:03;42.17;;;23.10;;
28158;SDS011;15447;50.828;4.406;2023-11-21T11:37:41;38.30;;;20.98;;
28158;SDS011;15447;50.828;4.406;2023-11-21T11:40:08;42.70;;;23.45;;
28158;SDS011;15447;50.828;4.406;2023-11-21T11:42:36;45.08;;;24.38;;
28158;SDS011;15447;50.828;4.406;2023-11-21T11:45:02;46.33;;;24.05;;
28158;SDS011;15447;50.828;4.406;2023-11-21T11:47:44;42.20;;;23.83;;
28158;SDS011;15447;50.828;4.406;2023-11-21T11:50:13;40.95;;;22.80;;
28158;SDS011;15447;50.828;4.406;2023-11-21T11:52:48;37.67;;;23.10;;
28158;SDS011;15447;50.828;4.406;2023-11-21T11:55:17;40.88;;;23.85;;
28158;SDS011;15447;50.828;4.406;2023-11-21T11:57:44;40.55;;;25.73;;
28158;SDS011;15447;50.828;4.406;2023-11-21T12:00:18;44.30;;;26.10;;
28158;SDS011;15447;50.828;4.406;2023-11-21T12:02:59;43.17;;;25.67;;
28158;SDS011;15447;50.828;4.406;2023-11-21T12:05:28;39.88;;;24.45;;
28158;SDS011;15447;50.828;4.406;2023-11-21T12:07:59;45.63;;;25.77;;
28158;SDS011;15447;50.828;4.406;2023-11-21T12:10:27;39.33;;;23.42;;
28158;SDS011;15447;50.828;4.406;2023-11-21T12:12:55;35.63;;;22.17;;
28158;SDS011;15447;50.828;4.406;2023-11-21T12:15:21;28.90;;;19.35;;
28158;SDS011;15447;50.828;4.406;2023-11-21T12:17:47;32.25;;;20.10;;
28158;SDS011;15447;50.828;4.406;2023-11-21T12:20:14;26.13;;;16.35;;
28158;SDS011;15447;50.828;4.406;2023-11-21T12:22:44;25.85;;;14.68;;
28158;SDS011;15447;50.828;4.406;2023-11-21T12:25:14;23.02;;;14.15;;
28158;SDS011;15447;50.828;4.406;2023-11-21T12:27:44;20.55;;;14.15;;
28158;SDS011;15447;50.828;4.406;2023-11-21T12:30:17;23.83;;;15.07;;
28158;SDS011;15447;50.828;4.406;2023-11-21T12:32:45;25.70;;;15.80;;
28158;SDS011;15447;50.828;4.406;2023-11-21T12:35:14;23.65;;;14.40;;
28158;SDS011;15447;50.828;4.406;2023-11-21T12:37:41;21.45;;;13.15;;
28158;SDS011;15447;50.828;4.406;2023-11-21T12:40:10;23.00;;;14.40;;
28158;SDS011;15447;50.828;4.406;2023-11-21T12:42:39;22.45;;;12.30;;
28158;SDS011;15447;50.828;4.406;2023-11-21T12:47:34;20.15;;;13.00;;
28158;SDS011;15447;50.828;4.406;2023-11-21T12:50:01;17.15;;;11.75;;
28158;SDS011;15447;50.828;4.406;2023-11-21T12:52:28;22.50;;;12.48;;
28158;SDS011;15447;50.828;4.406;2023-11-21T12:54:53;22.73;;;13.45;;
28158;SDS011;15447;50.828;4.406;2023-11-21T12:57:21;19.83;;;13.40;;
28158;SDS011;15447;50.828;4.406;2023-11-21T13:00:35;19.15;;;13.35;;
28158;SDS011;15447;50.828;4.406;2023-11-21T13:03:03;19.63;;;12.85;;
28158;SDS011;15447;50.828;4.406;2023-11-21T13:05:30;21.77;;;13.27;;
28158;SDS011;15447;50.828;4.406;2023-11-21T13:08:01;24.45;;;15.25;;
28158;SDS011;15447;50.828;4.406;2023-11-21T13:10:29;22.75;;;13.40;;
28158;SDS011;15447;50.828;4.406;2023-11-21T13:12:57;20.80;;;11.85;;
28158;SDS011;15447;50.828;4.406;2023-11-21T13:15:24;22.40;;;11.27;;
28158;SDS011;15447;50.828;4.406;2023-11-21T13:17:51;20.73;;;12.57;;
28158;SDS011;15447;50.828;4.406;2023-11-21T13:20:18;22.27;;;13.85;;
28158;SDS011;15447;50.828;4.406;2023-11-21T13:23:07;19.85;;;13.07;;
28158;SDS011;15447;50.828;4.406;2023-11-21T13:25:34;22.63;;;13.52;;
28158;SDS011;15447;50.828;4.406;2023-11-21T13:27:59;23.52;;;13.88;;
28158;SDS011;15447;50.828;4.406;2023-11-21T13:30:25;23.42;;;14.90;;
28158;SDS011;15447;50.828;4.406;2023-11-21T13:32:52;23.65;;;13.63;;
28158;SDS011;15447;50.828;4.406;2023-11-21T13:35:27;26.63;;;14.23;;
28158;SDS011;15447;50.828;4.406;2023-11-21T13:38:02;25.70;;;14.18;;
28158;SDS011;15447;50.828;4.406;2023-11-21T13:40:38;24.70;;;16.10;;
28158;SDS011;15447;50.828;4.406;2023-11-21T13:43:13;23.48;;;13.80;;
28158;SDS011;15447;50.828;4.406;2023-11-21T13:45:39;27.27;;;15.05;;
28158;SDS011;15447;50.828;4.406;2023-11-21T13:48:06;21.90;;;13.57;;
28158;SDS011;15447;50.828;4.406;2023-11-21T13:50:45;21.08;;;14.15;;
28158;SDS011;15447;50.828;4.406;2023-11-21T13:53:23;26.05;;;14.95;;
28158;SDS011;15447;50.828;4.406;2023-11-21T13:55:52;23.83;;;15.15;;
28158;SDS011;15447;50.828;4.406;2023-11-21T13:58:19;26.52;;;14.80;;
28158;SDS011;15447;50.828;4.406;2023-11-21T14:00:59;20.23;;;13.85;;
28158;SDS011;15447;50.828;4.406;2023-11-21T14:03:26;24.58;;;13.30;;
28158;SDS011;15447;50.828;4.406;2023-11-21T14:06:04;23.85;;;13.88;;
28158;SDS011;15447;50.828;4.406;2023-11-21T14:08:39;19.02;;;12.38;;
28158;SDS011;15447;50.828;4.406;2023-11-21T14:11:06;16.15;;;11.05;;
28158;SDS011;15447;50.828;4.406;2023-11-21T14:13:32;13.25;;;8.32;;
28158;SDS011;15447;50.828;4.406;2023-11-21T14:15:58;10.85;;;7.70;;
28158;SDS011;15447;50.828;4.406;2023-11-21T14:18:26;18.58;;;7.80;;
28158;SDS011;15447;50.828;4.406;2023-11-21T14:20:55;14.57;;;7.97;;
28158;SDS011;15447;50.828;4.406;2023-11-21T14:23:21;11.30;;;6.97;;
28158;SDS011;15447;50.828;4.406;2023-11-21T14:25:49;13.77;;;7.15;;
28158;SDS011;15447;50.828;4.406;2023-11-21T14:28:16;9.00;;;6.07;;
28158;SDS011;15447;50.828;4.406;2023-11-21T14:30:41;13.60;;;7.00;;
28158;SDS011;15447;50.828;4.406;2023-11-21T14:33:07;12.82;;;5.70;;
28158;SDS011;15447;50.828;4.406;2023-11-21T14:35:37;11.25;;;6.20;;
28158;SDS011;15447;50.828;4.406;2023-11-21T14:38:03;11.38;;;5.60;;
28158;SDS011;15447;50.828;4.406;2023-11-21T14:40:35;8.35;;;5.50;;
28158;SDS011;15447;50.828;4.406;2023-11-21T14:43:02;9.13;;;5.25;;
28158;SDS011;15447;50.828;4.406;2023-11-21T14:45:30;10.95;;;5.53;;
28158;SDS011;15447;50.828;4.406;2023-11-21T14:47:57;8.98;;;6.90;;
28158;SDS011;15447;50.828;4.406;2023-11-21T14:50:33;16.83;;;8.05;;
28158;SDS011;15447;50.828;4.406;2023-11-21T14:53:28;11.32;;;7.80;;
28158;SDS011;15447;50.828;4.406;2023-11-21T14:56:19;12.32;;;7.88;;
28158;SDS011;15447;50.828;4.406;2023-11-21T14:59:08;16.20;;;7.93;;
28158;SDS011;15447;50.828;4.406;2023-11-21T15:01:44;10.23;;;7.63;;
28158;SDS011;15447;50.828;4.406;2023-11-21T15:04:20;10.57;;;7.45;;
28158;SDS011;15447;50.828;4.406;2023-11-21T15:07:05;17.60;;;8.93;;
28158;SDS011;15447;50.828;4.406;2023-11-21T15:09:31;15.10;;;8.65;;
28158;SDS011;15447;50.828;4.406;2023-11-21T15:11:57;12.70;;;8.23;;
28158;SDS011;15447;50.828;4.406;2023-11-21T15:14:48;10.85;;;7.35;;
28158;SDS011;15447;50.828;4.406;2023-11-21T15:17:18;14.23;;;7.50;;
28158;SDS011;15447;50.828;4.406;2023-11-21T15:19:55;17.60;;;8.27;;
28158;SDS011;15447;50.828;4.406;2023-11-21T15:22:21;17.90;;;8.10;;
28158;SDS011;15447;50.828;4.406;2023-11-21T15:24:47;18.23;;;11.63;;
28158;SDS011;15447;50.828;4.406;2023-11-21T15:27:14;11.85;;;7.38;;
28158;SDS011;15447;50.828;4.406;2023-11-21T15:29:41;14.80;;;7.95;;
28158;SDS011;15447;50.828;4.406;2023-11-21T15:32:07;12.35;;;7.95;;
28158;SDS011;15447;50.828;4.406;2023-11-21T15:34:33;16.95;;;8.80;;
28158;SDS011;15447;50.828;4.406;2023-11-21T15:37:00;15.20;;;8.30;;
28158;SDS011;15447;50.828;4.406;2023-11-21T15:39:26;17.70;;;9.63;;
28158;SDS011;15447;50.828;4.406;2023-11-21T15:42:01;17.95;;;9.85;;
28158;SDS011;15447;50.828;4.406;2023-11-21T15:44:29;20.23;;;9.85;;
28158;SDS011;15447;50.828;4.406;2023-11-21T15:46:56;17.05;;;9.65;;
28158;SDS011;15447;50.828;4.406;2023-11-21T15:49:21;19.52;;;10.30;;
28158;SDS011;15447;50.828;4.406;2023-11-21T15:51:50;19.38;;;10.75;;
28158;SDS011;15447;50.828;4.406;2023-11-21T15:56:50;16.65;;;9.93;;
28158;SDS011;15447;50.828;4.406;2023-11-21T15:59:17;16.90;;;10.13;;
28158;SDS011;15447;50.828;4.406;2023-11-21T16:01:43;21.98;;;11.18;;
28158;SDS011;15447;50.828;4.406;2023-11-21T16:04:12;19.88;;;10.50;;
28158;SDS011;15447;50.828;4.406;2023-11-21T16:06:45;18.63;;;10.85;;
28158;SDS011;15447;50.828;4.406;2023-11-21T16:09:12;23.10;;;11.85;;
28158;SDS011;15447;50.828;4.406;2023-11-21T16:11:56;23.90;;;13.07;;
28158;SDS011;15447;50.828;4.406;2023-11-21T16:14:27;23.75;;;13.60;;
28158;SDS011;15447;50.828;4.406;2023-11-21T16:19:26;23.50;;;13.88;;
28158;SDS011;15447;50.828;4.406;2023-11-21T16:21:51;27.73;;;14.75;;
28158;SDS011;15447;50.828;4.406;2023-11-21T16:24:18;23.58;;;13.88;;
28158;SDS011;15447;50.828;4.406;2023-11-21T16:26:44;23.73;;;14.20;;
28158;SDS011;15447;50.828;4.406;2023-11-21T16:29:11;24.10;;;14.18;;
28158;SDS011;15447;50.828;4.406;2023-11-21T16:31:37;24.02;;;14.18;;
28158;SDS011;15447;50.828;4.406;2023-11-21T16:34:04;28.42;;;14.52;;
28158;SDS011;15447;50.828;4.406;2023-11-21T16:36:40;26.20;;;14.00;;
28158;SDS011;15447;50.828;4.406;2023-11-21T16:39:07;24.52;;;13.57;;
28158;SDS011;15447;50.828;4.406;2023-11-21T16:41:37;21.58;;;12.57;;
28158;SDS011;15447;50.828;4.406;2023-11-21T16:44:06;24.25;;;13.15;;
28158;SDS011;15447;50.828;4.406;2023-11-21T16:46:38;22.42;;;12.98;;
28158;SDS011;15447;50.828;4.406;2023-11-21T16:49:04;19.63;;;11.95;;
28158;SDS011;15447;50.828;4.406;2023-11-21T16:51:30;23.40;;;11.82;;
28158;SDS011;15447;50.828;4.406;2023-11-21T16:53:56;21.30;;;12.30;;
28158;SDS011;15447;50.828;4.406;2023-11-21T16:56:21;21.52;;;12.10;;
28158;SDS011;15447;50.828;4.406;2023-11-21T16:58:48;19.98;;;11.35;;
28158;SDS011;15447;50.828;4.406;2023-11-21T17:01:14;18.95;;;11.30;;
28158;SDS011;15447;50.828;4.406;2023-11-21T17:03:42;20.17;;;11.57;;
28158;SDS011;15447;50.828;4.406;2023-11-21T17:06:08;22.80;;;11.70;;
28158;SDS011;15447;50.828;4.406;2023-11-21T17:08:34;19.38;;;11.57;;
28158;SDS011;15447;50.828;4.406;2023-11-21T17:10:59;20.73;;;12.15;;
28158;SDS011;15447;50.828;4.406;2023-11-21T17:13:25;26.40;;;11.43;;
28158;SDS011;15447;50.828;4.406;2023-11-21T17:15:51;22.50;;;11.20;;
28158;SDS011;15447;50.828;4.406;2023-11-21T17:18:16;20.27;;;11.68;;
28158;SDS011;15447;50.828;4.406;2023-11-21T17:20:42;21.08;;;10.82;;
28158;SDS011;15447;50.828;4.406;2023-11-21T17:23:08;20.42;;;11.50;;
28158;SDS011;15447;50.828;4.406;2023-11-21T17:25:35;18.77;;;10.63;;
28158;SDS011;15447;50.828;4.406;2023-11-21T17:28:01;18.70;;;10.95;;
28158;SDS011;15447;50.828;4.406;2023-11-21T17:30:28;21.35;;;10.82;;
28158;SDS011;15447;50.828;4.406;2023-11-21T17:32:54;22.58;;;11.82;;
28158;SDS011;15447;50.828;4.406;2023-11-21T17:35:20;19.83;;;10.98;;
28158;SDS011;15447;50.828;4.406;2023-11-21T17:37:47;49.67;;;33.45;;
28158;SDS011;15447;50.828;4.406;2023-11-21T17:40:12;22.10;;;10.93;;
28158;SDS011;15447;50.828;4.406;2023-11-21T17:42:39;19.90;;;11.27;;
28158;SDS011;15447;50.828;4.406;2023-11-21T17:45:06;18.27;;;11.07;;
28158;SDS011;15447;50.828;4.406;2023-11-21T17:47:32;20.33;;;11.25;;
28158;SDS011;15447;50.828;4.406;2023-11-21T17:49:58;18.08;;;11.18;;
28158;SDS011;15447;50.828;4.406;2023-11-21T17:52:24;20.52;;;11.60;;
28158;SDS011;15447;50.828;4.406;2023-11-21T17:54:49;20.00;;;10.75;;
28158;SDS011;15447;50.828;4.406;2023-11-21T17:57:15;21.63;;;12.05;;
28158;SDS011;15447;50.828;4.406;2023-11-21T17:59:41;23.20;;;12.45;;
28158;SDS011;15447;50.828;4.406;2023-11-21T18:02:07;24.20;;;12.88;;
28158;SDS011;15447;50.828;4.406;2023-11-21T18:04:37;22.67;;;13.00;;
28158;SDS011;15447;50.828;4.406;2023-11-21T18:07:03;23.88;;;13.05;;
28158;SDS011;15447;50.828;4.406;2023-11-21T18:09:33;28.50;;;15.25;;
28158;SDS011;15447;50.828;4.406;2023-11-21T18:11:59;28.75;;;16.27;;
28158;SDS011;15447;50.828;4.406;2023-11-21T18:14:27;27.77;;;14.70;;
28158;SDS011;15447;50.828;4.406;2023-11-21T18:16:54;30.60;;;15.27;;
28158;SDS011;15447;50.828;4.406;2023-11-21T18:19:20;31.25;;;16.40;;
28158;SDS011;15447;50.828;4.406;2023-11-21T18:21:46;32.55;;;17.63;;
28158;SDS011;15447;50.828;4.406;2023-11-21T18:24:12;34.75;;;19.15;;
28158;SDS011;15447;50.828;4.406;2023-11-21T18:26:37;37.20;;;20.23;;
28158;SDS011;15447;50.828;4.406;2023-11-21T18:29:03;39.33;;;19.80;;
28158;SDS011;15447;50.828;4.406;2023-11-21T18:31:29;41.60;;;19.85;;
28158;SDS011;15447;50.828;4.406;2023-11-21T18:33:55;37.78;;;20.15;;
28158;SDS011;15447;50.828;4.406;2023-11-21T18:36:20;35.78;;;19.98;;
28158;SDS011;15447;50.828;4.406;2023-11-21T18:38:46;40.00;;;20.38;;
28158;SDS011;15447;50.828;4.406;2023-11-21T18:41:19;36.85;;;20.20;;
28158;SDS011;15447;50.828;4.406;2023-11-21T18:43:46;34.95;;;18.13;;
28158;SDS011;15447;50.828;4.406;2023-11-21T18:46:11;33.97;;;19.30;;
28158;SDS011;15447;50.828;4.406;2023-11-21T18:48:37;37.75;;;19.73;;
28158;SDS011;15447;50.828;4.406;2023-11-21T18:51:03;36.15;;;19.80;;
28158;SDS011;15447;50.828;4.406;2023-11-21T18:53:28;38.90;;;19.40;;
28158;SDS011;15447;50.828;4.406;2023-11-21T18:55:57;35.35;;;17.80;;
28158;SDS011;15447;50.828;4.406;2023-11-21T18:58:22;33.35;;;18.08;;
28158;SDS011;15447;50.828;4.406;2023-11-21T19:00:48;30.73;;;16.80;;
28158;SDS011;15447;50.828;4.406;2023-11-21T19:03:15;30.85;;;17.88;;
28158;SDS011;15447;50.828;4.406;2023-11-21T19:05:40;30.85;;;16.60;;
28158;SDS011;15447;50.828;4.406;2023-11-21T19:08:06;33.97;;;17.38;;
28158;SDS011;15447;50.828;4.406;2023-11-21T19:10:32;28.90;;;16.23;;
28158;SDS011;15447;50.828;4.406;2023-11-21T19:12:58;25.63;;;14.88;;
28158;SDS011;15447;50.828;4.406;2023-11-21T19:15:24;25.02;;;14.77;;
28158;SDS011;15447;50.828;4.406;2023-11-21T19:17:50;23.20;;;13.63;;
28158;SDS011;15447;50.828;4.406;2023-11-21T19:20:18;30.15;;;16.35;;
28158;SDS011;15447;50.828;4.406;2023-11-21T19:22:44;31.67;;;16.63;;
28158;SDS011;15447;50.828;4.406;2023-11-21T19:25:10;35.28;;;17.55;;
28158;SDS011;15447;50.828;4.406;2023-11-21T19:27:37;33.22;;;17.60;;
28158;SDS011;15447;50.828;4.406;2023-11-21T19:30:03;32.95;;;18.67;;
28158;SDS011;15447;50.828;4.406;2023-11-21T19:32:30;37.17;;;18.35;;
28158;SDS011;15447;50.828;4.406;2023-11-21T19:34:58;35.97;;;18.08;;
28158;SDS011;15447;50.828;4.406;2023-11-21T19:37:23;43.70;;;20.10;;
28158;SDS011;15447;50.828;4.406;2023-11-21T19:39:49;43.58;;;20.73;;
28158;SDS011;15447;50.828;4.406;2023-11-21T19:42:18;46.25;;;21.80;;
28158;SDS011;15447;50.828;4.406;2023-11-21T19:44:45;51.63;;;23.40;;
28158;SDS011;15447;50.828;4.406;2023-11-21T19:47:11;43.67;;;22.38;;
28158;SDS011;15447;50.828;4.406;2023-11-21T19:49:38;48.05;;;22.52;;
28158;SDS011;15447;50.828;4.406;2023-11-21T19:52:04;44.90;;;22.55;;
28158;SDS011;15447;50.828;4.406;2023-11-21T19:54:34;47.25;;;21.27;;
28158;SDS011;15447;50.828;4.406;2023-11-21T19:57:00;44.45;;;20.50;;
28158;SDS011;15447;50.828;4.406;2023-11-21T19:59:29;42.60;;;18.48;;
28158;SDS011;15447;50.828;4.406;2023-11-21T20:02:04;38.95;;;18.48;;
28158;SDS011;15447;50.828;4.406;2023-11-21T20:04:30;38.03;;;18.55;;
28158;SDS011;15447;50.828;4.406;2023-11-21T20:06:56;39.55;;;18.80;;
28158;SDS011;15447;50.828;4.406;2023-11-21T20:09:21;35.72;;;18.40;;
28158;SDS011;15447;50.828;4.406;2023-11-21T20:11:47;36.33;;;18.48;;
28158;SDS011;15447;50.828;4.406;2023-11-21T20:14:15;34.50;;;18.50;;
28158;SDS011;15447;50.828;4.406;2023-11-21T20:16:44;32.40;;;16.85;;
28158;SDS011;15447;50.828;4.406;2023-11-21T20:19:14;35.88;;;18.33;;
28158;SDS011;15447;50.828;4.406;2023-11-21T20:21:39;35.35;;;18.55;;
28158;SDS011;15447;50.828;4.406;2023-11-21T20:24:05;35.55;;;18.13;;
28158;SDS011;15447;50.828;4.406;2023-11-21T20:26:31;32.95;;;18.25;;
28158;SDS011;15447;50.828;4.406;2023-11-21T20:28:57;34.58;;;19.90;;
28158;SDS011;15447;50.828;4.406;2023-11-21T20:31:22;38.40;;;19.77;;
28158;SDS011;15447;50.828;4.406;2023-11-21T20:33:48;32.83;;;18.60;;
28158;SDS011;15447;50.828;4.406;2023-11-21T20:36:25;31.73;;;19.00;;
28158;SDS011;15447;50.828;4.406;2023-11-21T20:38:53;29.70;;;17.45;;
28158;SDS011;15447;50.828;4.406;2023-11-21T20:41:23;32.58;;;19.00;;
28158;SDS011;15447;50.828;4.406;2023-11-21T20:43:52;31.08;;;17.85;;
28158;SDS011;15447;50.828;4.406;2023-11-21T20:46:21;31.60;;;18.90;;
28158;SDS011;15447;50.828;4.406;2023-11-21T20:49:03;30.13;;;18.38;;
28158;SDS011;15447;50.828;4.406;2023-11-21T20:51:29;32.88;;;20.25;;
28158;SDS011;15447;50.828;4.406;2023-11-21T20:53:59;31.35;;;19.20;;
28158;SDS011;15447;50.828;4.406;2023-11-21T20:56:38;30.42;;;18.75;;
28158;SDS011;15447;50.828;4.406;2023-11-21T20:59:06;35.60;;;20.58;;
28158;SDS011;15447;50.828;4.406;2023-11-21T21:01:38;30.25;;;18.38;;
28158;SDS011;15447;50.828;4.406;2023-11-21T21:04:10;31.00;;;17.80;;
28158;SDS011;15447;50.828;4.406;2023-11-21T21:06:41;31.10;;;19.63;;
28158;SDS011;15447;50.828;4.406;2023-11-21T21:09:10;27.15;;;17.52;;
28158;SDS011;15447;50.828;4.406;2023-11-21T21:11:39;27.90;;;17.60;;
28158;SDS011;15447;50.828;4.406;2023-11-21T21:14:10;26.75;;;17.42;;